createdAt,value
2019-02-26T00:01:35.328Z,27.23
2019-02-26T00:04:06.496Z,23.67
2019-02-26T00:06:42.437Z,31.53
2019-02-26T00:09:18.170Z,34.97
2019-02-26T00:11:48.076Z,34.57
2019-02-26T00:14:20.711Z,31.52
2019-02-26T00:16:54.491Z,24.25
2019-02-26T00:19:26.067Z,23.57
2019-02-26T00:21:58.196Z,27.67
2019-02-26T00:24:30.787Z,34.65
2019-02-26T00:27:03.796Z,27.43
2019-02-26T00:29:36.253Z,31.27
2019-02-26T00:32:10.091Z,36.20
2019-02-26T00:34:41.481Z,28.27
2019-02-26T00:37:55.707Z,20.03
2019-02-26T00:40:27.275Z,31.13
2019-02-26T00:43:00.175Z,34.77
2019-02-26T00:45:33.564Z,32.00
2019-02-26T00:48:04.611Z,35.23
2019-02-26T00:50:37.511Z,36.70
2019-02-26T00:53:10.731Z,34.67
2019-02-26T00:55:41.969Z,36.88
2019-02-26T00:58:13.276Z,35.17
2019-02-26T01:00:44.968Z,37.28
2019-02-26T01:03:16.791Z,37.13
2019-02-26T01:05:48.168Z,37.58
2019-02-26T01:08:19.911Z,36.38
2019-02-26T01:10:51.525Z,36.42
2019-02-26T01:13:25.630Z,35.13
2019-02-26T01:15:56.911Z,35.83
2019-02-26T01:18:29.097Z,32.63
2019-02-26T01:21:02.534Z,33.15
2019-02-26T01:23:34.225Z,32.63
2019-02-26T01:26:06.113Z,34.67
2019-02-26T01:28:39.555Z,35.43
2019-02-26T01:31:11.032Z,36.42
2019-02-26T01:33:42.284Z,32.70
2019-02-26T01:36:13.968Z,36.63
2019-02-26T01:38:48.697Z,35.40
2019-02-26T01:41:20.989Z,35.43
2019-02-26T01:43:52.601Z,34.78
2019-02-26T01:46:23.972Z,32.70
2019-02-26T01:48:57.432Z,36.83
2019-02-26T01:51:29.338Z,32.45
2019-02-26T01:54:01.459Z,36.40
2019-02-26T01:56:36.282Z,35.95
2019-02-26T01:59:07.255Z,37.20
2019-02-26T02:01:42.071Z,37.03
2019-02-26T02:04:12.880Z,37.73
2019-02-26T02:06:44.566Z,34.80
2019-02-26T02:09:17.684Z,36.23
2019-02-26T02:11:48.792Z,26.85
2019-02-26T02:14:21.020Z,28.60
2019-02-26T02:16:52.368Z,30.48
2019-02-26T02:19:25.725Z,36.77
2019-02-26T02:21:58.277Z,37.08
2019-02-26T02:24:31.810Z,16.62
2019-02-26T02:27:03.524Z,35.90
2019-02-26T02:29:34.817Z,36.55
2019-02-26T02:32:07.710Z,38.85
2019-02-26T02:34:42.923Z,39.65
2019-02-26T02:37:15.341Z,34.40
2019-02-26T02:39:47.210Z,37.08
2019-02-26T02:42:21.297Z,39.23
2019-02-26T02:44:52.818Z,39.33
2019-02-26T02:47:25.316Z,38.45
2019-02-26T02:49:57.941Z,38.60
2019-02-26T02:52:30.362Z,36.57
2019-02-26T02:55:04.567Z,38.43
2019-02-26T02:57:35.843Z,37.93
2019-02-26T03:00:08.901Z,39.75
2019-02-26T03:02:42.884Z,37.93
2019-02-26T03:05:13.614Z,39.33
2019-02-26T03:07:48.850Z,39.40
2019-02-26T03:10:18.281Z,32.85
2019-02-26T03:12:53.854Z,24.67
2019-02-26T03:15:24.589Z,34.33
2019-02-26T03:17:57.198Z,20.43
2019-02-26T03:20:30.826Z,32.15
2019-02-26T03:23:01.490Z,35.08
2019-02-26T03:25:32.788Z,39.65
2019-02-26T03:28:04.338Z,34.67
2019-02-26T03:30:40.603Z,40.67
2019-02-26T03:33:08.843Z,41.50
2019-02-26T03:35:40.532Z,41.35
2019-02-26T03:38:11.746Z,33.63
2019-02-26T03:40:43.319Z,40.60
2019-02-26T03:43:16.282Z,40.35
2019-02-26T03:45:48.231Z,40.98
2019-02-26T03:48:20.501Z,37.45
2019-02-26T03:50:51.908Z,35.95
2019-02-26T03:53:25.591Z,36.95
2019-02-26T03:56:01.926Z,36.90
2019-02-26T03:58:29.816Z,27.87
2019-02-26T04:01:04.583Z,33.73
2019-02-26T04:03:37.623Z,37.65
2019-02-26T04:06:09.976Z,29.27
2019-02-26T04:08:42.316Z,40.43
2019-02-26T04:11:16.538Z,40.90
2019-02-26T04:13:49.362Z,41.53
2019-02-26T04:16:20.109Z,44.38
2019-02-26T04:18:52.104Z,42.05
2019-02-26T04:21:23.548Z,43.08
2019-02-26T04:23:54.848Z,40.12
2019-02-26T04:27:04.138Z,43.52
2019-02-26T04:29:59.691Z,41.02
2019-02-26T04:33:20.671Z,42.25
2019-02-26T04:36:02.329Z,42.03
2019-02-26T04:39:01.631Z,40.63
2019-02-26T04:42:20.541Z,42.48
2019-02-26T04:45:30.310Z,42.48
2019-02-26T04:48:01.759Z,36.87
2019-02-26T04:50:35.511Z,40.77
2019-02-26T04:53:08.548Z,43.08
2019-02-26T04:55:41.532Z,42.08
2019-02-26T04:58:14.934Z,40.10
2019-02-26T05:00:45.326Z,40.65
2019-02-26T05:03:18.148Z,39.38
2019-02-26T05:05:53.737Z,40.92
2019-02-26T05:08:23.026Z,43.10
2019-02-26T05:10:57.250Z,42.53
2019-02-26T05:13:29.314Z,41.73
2019-02-26T05:16:00.721Z,42.20
2019-02-26T05:18:34.402Z,40.88
2019-02-26T05:21:08.273Z,39.67
2019-02-26T05:23:38.749Z,38.58
2019-02-26T05:26:11.655Z,41.02
2019-02-26T05:28:44.236Z,41.90
2019-02-26T05:31:17.525Z,42.13
2019-02-26T05:33:50.149Z,36.33
2019-02-26T05:36:22.391Z,40.70
2019-02-26T05:38:56.989Z,39.77
2019-02-26T05:41:27.874Z,42.50
2019-02-26T05:44:03.490Z,41.13
2019-02-26T05:46:32.017Z,41.87
2019-02-26T05:49:06.845Z,40.10
2019-02-26T05:51:38.202Z,39.27
2019-02-26T05:54:12.229Z,42.00
2019-02-26T05:56:46.138Z,43.50
2019-02-26T05:59:18.121Z,40.45
2019-02-26T06:01:52.733Z,42.43
2019-02-26T06:04:22.984Z,41.65
2019-02-26T06:06:56.405Z,44.35
2019-02-26T06:09:30.551Z,40.93
2019-02-26T06:12:01.727Z,41.07
2019-02-26T06:14:35.931Z,41.80
2019-02-26T06:17:07.357Z,42.60
2019-02-26T06:19:47.565Z,42.30
2019-02-26T06:22:21.321Z,41.07
2019-02-26T06:24:54.951Z,47.85
2019-02-26T06:27:27.298Z,43.13
2019-02-26T06:30:00.776Z,38.77
2019-02-26T06:32:34.537Z,44.25
2019-02-26T06:35:08.521Z,42.20
2019-02-26T06:37:40.391Z,43.57
2019-02-26T06:40:12.902Z,42.23
2019-02-26T06:42:44.260Z,42.53
2019-02-26T06:45:17.184Z,42.30
2019-02-26T06:47:51.333Z,37.33
2019-02-26T06:50:26.069Z,42.78
2019-02-26T06:52:57.497Z,42.35
2019-02-26T06:55:28.688Z,42.80
2019-02-26T06:58:29.970Z,34.35
2019-02-26T07:01:01.550Z,34.13
2019-02-26T07:03:32.886Z,41.80
2019-02-26T07:06:04.960Z,40.90
2019-02-26T07:08:36.281Z,44.15
2019-02-26T07:11:07.519Z,41.65
2019-02-26T07:13:41.045Z,41.08
2019-02-26T07:16:34.713Z,45.48
2019-02-26T07:19:06.521Z,39.80
2019-02-26T07:21:40.641Z,41.60
2019-02-26T07:24:12.138Z,37.28
2019-02-26T07:26:46.393Z,40.20
2019-02-26T07:29:17.665Z,39.58
2019-02-26T07:31:49.519Z,36.53
2019-02-26T07:34:22.778Z,30.17
2019-02-26T07:36:55.841Z,38.83
2019-02-26T07:39:27.823Z,30.88
2019-02-26T07:42:00.569Z,33.23
2019-02-26T07:44:32.383Z,42.70
2019-02-26T07:47:06.685Z,36.68
2019-02-26T07:49:38.627Z,37.53
2019-02-26T07:52:10.085Z,34.95
2019-02-26T07:54:42.783Z,37.17
2019-02-26T07:57:15.741Z,34.53
2019-02-26T07:59:50.199Z,36.13
2019-02-26T08:02:22.176Z,35.08
2019-02-26T08:04:53.802Z,33.55
2019-02-26T08:07:26.783Z,33.70
2019-02-26T08:09:59.806Z,36.90
2019-02-26T08:12:35.054Z,35.13
2019-02-26T08:15:08.710Z,30.45
2019-02-26T08:17:40.448Z,31.95
2019-02-26T08:20:14.881Z,31.30
2019-02-26T08:22:46.843Z,28.10
2019-02-26T08:25:18.486Z,18.87
2019-02-26T08:27:51.761Z,33.45
2019-02-26T08:30:25.891Z,32.15
2019-02-26T08:32:58.917Z,30.70
2019-02-26T08:35:34.255Z,31.82
2019-02-26T08:38:06.375Z,34.55
2019-02-26T08:40:37.793Z,30.77
2019-02-26T08:43:09.140Z,33.35
2019-02-26T08:45:40.527Z,31.17
2019-02-26T08:48:13.263Z,32.00
2019-02-26T08:50:46.317Z,31.75
2019-02-26T08:53:19.616Z,30.57
2019-02-26T08:55:56.336Z,28.73
2019-02-26T08:58:31.996Z,29.90
2019-02-26T09:01:06.659Z,28.65
2019-02-26T09:03:40.958Z,30.23
2019-02-26T09:06:13.599Z,30.57
2019-02-26T09:08:46.525Z,30.68
2019-02-26T09:11:19.705Z,25.17
2019-02-26T09:13:52.009Z,26.40
2019-02-26T09:16:27.650Z,27.15
2019-02-26T09:18:59.304Z,27.85
2019-02-26T09:21:31.337Z,28.23
2019-02-26T09:24:07.689Z,12.33
2019-02-26T09:26:40.734Z,30.05
2019-02-26T09:29:24.583Z,27.25
2019-02-26T09:31:55.996Z,29.23
2019-02-26T09:34:29.330Z,25.37
2019-02-26T09:37:05.749Z,27.65
2019-02-26T09:39:40.591Z,30.00
2019-02-26T09:42:13.544Z,22.82
2019-02-26T09:45:04.662Z,31.30
2019-02-26T09:47:40.349Z,30.97
2019-02-26T09:53:20.072Z,31.20
2019-02-26T09:55:52.400Z,33.83
2019-02-26T09:58:48.441Z,34.18
2019-02-26T10:01:51.274Z,33.23
2019-02-26T10:04:31.924Z,34.18
2019-02-26T10:07:08.855Z,33.67
2019-02-26T10:09:45.733Z,33.85
2019-02-26T10:12:15.810Z,37.28
2019-02-26T10:14:49.719Z,38.80
2019-02-26T10:17:21.529Z,36.60
2019-02-26T10:19:55.022Z,36.38
2019-02-26T10:22:28.952Z,26.50
2019-02-26T10:25:01.322Z,33.95
2019-02-26T10:27:38.278Z,34.18
2019-02-26T10:30:47.897Z,37.85
2019-02-26T10:33:21.123Z,36.55
2019-02-26T10:35:52.660Z,40.30
2019-02-26T10:38:28.885Z,34.88
2019-02-26T10:40:59.716Z,35.50
2019-02-26T10:43:31.857Z,39.25
2019-02-26T10:46:04.723Z,40.70
2019-02-26T10:48:36.245Z,41.35
2019-02-26T10:51:07.654Z,42.90
2019-02-26T10:53:39.313Z,43.65
2019-02-26T10:56:11.204Z,40.70
2019-02-26T10:58:42.568Z,42.10
2019-02-26T11:01:14.352Z,38.67
2019-02-26T11:03:49.290Z,41.65
2019-02-26T11:06:22.419Z,41.42
2019-02-26T11:08:55.721Z,40.60
2019-02-26T11:11:30.531Z,42.58
2019-02-26T11:14:05.259Z,45.05
2019-02-26T11:16:39.154Z,45.00
2019-02-26T11:19:12.345Z,39.83
2019-02-26T11:21:47.345Z,44.65
2019-02-26T11:24:19.352Z,44.55
2019-02-26T11:26:51.625Z,44.60
2019-02-26T11:29:23.060Z,42.58
2019-02-26T11:31:54.588Z,43.68
2019-02-26T11:34:28.579Z,42.88
2019-02-26T11:37:02.781Z,40.10
2019-02-26T11:39:37.059Z,42.75
2019-02-26T11:42:21.211Z,44.85
2019-02-26T11:44:52.383Z,24.40
2019-02-26T11:47:40.935Z,31.48
2019-02-26T11:50:32.832Z,43.42
2019-02-26T11:53:09.921Z,30.48
2019-02-26T11:55:43.431Z,17.65
2019-02-26T11:58:19.894Z,45.28
2019-02-26T12:01:14.676Z,46.80
2019-02-26T12:03:47.281Z,48.45
2019-02-26T12:06:20.771Z,40.15
2019-02-26T12:08:54.251Z,43.87
2019-02-26T12:11:26.032Z,44.30
2019-02-26T12:13:57.897Z,46.58
2019-02-26T12:16:30.570Z,41.68
2019-02-26T12:19:04.056Z,43.58
2019-02-26T12:21:37.041Z,43.78
2019-02-26T12:24:12.450Z,40.80
2019-02-26T12:26:44.686Z,37.33
2019-02-26T12:29:16.199Z,37.63
2019-02-26T12:31:53.834Z,40.43
2019-02-26T12:34:25.170Z,39.58
2019-02-26T12:37:02.130Z,37.53
2019-02-26T12:39:32.731Z,33.98
2019-02-26T12:42:08.054Z,35.40
2019-02-26T12:44:44.822Z,31.75
2019-02-26T12:47:17.831Z,36.10
2019-02-26T12:49:58.563Z,32.23
2019-02-26T12:52:34.256Z,26.62
2019-02-26T12:55:09.951Z,18.85
2019-02-26T12:57:43.305Z,24.92
2019-02-26T13:00:20.062Z,20.30
2019-02-26T13:02:52.299Z,29.70
2019-02-26T13:05:23.539Z,27.77
2019-02-26T13:07:57.018Z,27.30
2019-02-26T13:10:30.643Z,27.13
2019-02-26T13:13:06.552Z,24.63
2019-02-26T13:15:39.110Z,23.73
2019-02-26T13:18:11.324Z,23.98
2019-02-26T13:20:43.301Z,23.42
2019-02-26T13:23:19.576Z,22.42
2019-02-26T13:25:48.482Z,23.25
2019-02-26T13:28:29.690Z,26.02
2019-02-26T13:31:04.791Z,24.85
2019-02-26T13:33:38.538Z,21.65
2019-02-26T13:36:09.108Z,21.93
2019-02-26T13:39:00.184Z,21.80
2019-02-26T13:41:38.614Z,22.70
2019-02-26T13:44:07.047Z,19.70
2019-02-26T13:46:42.763Z,23.40
2019-02-26T13:49:14.230Z,22.90
2019-02-26T13:51:45.703Z,25.70
2019-02-26T13:54:19.165Z,25.20
2019-02-26T13:56:50.906Z,25.75
2019-02-26T13:59:23.455Z,26.23
2019-02-26T14:01:55.028Z,25.70
2019-02-26T14:04:27.602Z,24.32
2019-02-26T14:06:58.978Z,27.10
2019-02-26T14:09:30.513Z,29.10
2019-02-26T14:12:03.978Z,28.60
2019-02-26T14:14:36.041Z,29.27
2019-02-26T14:17:27.671Z,27.80
2019-02-26T14:20:03.698Z,29.63
2019-02-26T14:22:35.442Z,27.80
2019-02-26T14:25:09.653Z,29.92
2019-02-26T14:27:41.999Z,30.72
2019-02-26T14:30:14.508Z,23.38
2019-02-26T14:32:49.810Z,31.65
2019-02-26T14:35:21.521Z,33.50
2019-02-26T14:37:55.875Z,32.50
2019-02-26T14:40:27.907Z,31.12
2019-02-26T14:43:07.273Z,22.20
2019-02-26T14:46:00.827Z,29.52
2019-02-26T14:48:52.338Z,33.20
2019-02-26T14:51:45.911Z,33.67
2019-02-26T14:55:08.489Z,31.62
2019-02-26T14:57:42.621Z,20.23
2019-02-26T15:00:41.131Z,32.95
2019-02-26T15:03:35.948Z,35.00
2019-02-26T15:06:20.605Z,36.30
2019-02-26T15:09:12.236Z,36.35
2019-02-26T15:11:46.744Z,36.30
2019-02-26T15:14:20.637Z,33.95
2019-02-26T15:17:02.578Z,19.15
2019-02-26T15:19:49.430Z,36.03
2019-02-26T15:22:16.826Z,35.17
2019-02-26T15:28:23.871Z,34.35
2019-02-26T15:31:07.024Z,33.75
2019-02-26T15:33:39.532Z,21.75
2019-02-26T15:36:22.312Z,31.20
2019-02-26T15:38:57.818Z,31.42
2019-02-26T15:41:48.180Z,32.38
2019-02-26T15:44:35.854Z,33.02
2019-02-26T15:47:39.945Z,32.05
2019-02-26T15:51:14.368Z,32.58
2019-02-26T15:59:35.623Z,32.35
2019-02-26T16:02:07.526Z,33.53
2019-02-26T16:04:38.916Z,32.73
2019-02-26T16:07:11.535Z,33.63
2019-02-26T16:09:42.774Z,34.90
2019-02-26T16:12:14.151Z,33.75
2019-02-26T16:14:45.807Z,33.25
2019-02-26T16:17:17.291Z,34.43
2019-02-26T16:19:49.227Z,33.55
2019-02-26T16:22:23.251Z,34.00
2019-02-26T16:24:55.144Z,34.60
2019-02-26T16:27:28.281Z,35.83
2019-02-26T16:30:00.308Z,36.63
2019-02-26T16:32:32.132Z,34.53
2019-02-26T16:35:03.780Z,34.25
2019-02-26T16:37:35.532Z,36.50
2019-02-26T16:40:09.647Z,36.88
2019-02-26T16:42:44.334Z,36.50
2019-02-26T16:45:17.777Z,37.30
2019-02-26T16:47:49.512Z,37.05
2019-02-26T16:50:22.954Z,35.43
2019-02-26T16:52:54.784Z,34.90
2019-02-26T16:55:26.174Z,34.18
2019-02-26T16:58:02.357Z,32.83
2019-02-26T17:00:33.029Z,33.40
2019-02-26T17:03:07.416Z,32.10
2019-02-26T17:05:40.800Z,33.60
2019-02-26T17:08:12.589Z,33.08
2019-02-26T17:10:44.251Z,29.80
2019-02-26T17:13:16.359Z,28.10
2019-02-26T17:15:49.426Z,24.20
2019-02-26T17:18:21.939Z,25.77
2019-02-26T17:20:56.934Z,22.25
2019-02-26T17:23:29.224Z,28.05
2019-02-26T17:26:01.180Z,25.90
2019-02-26T17:28:33.563Z,30.68
2019-02-26T17:31:06.343Z,26.35
2019-02-26T17:33:38.771Z,27.52
2019-02-26T17:36:10.077Z,26.52
2019-02-26T17:38:41.251Z,28.20
2019-02-26T17:41:13.293Z,26.75
2019-02-26T17:43:44.527Z,27.20
2019-02-26T17:46:16.551Z,27.77
2019-02-26T17:48:48.925Z,27.95
2019-02-26T17:51:21.413Z,27.60
2019-02-26T17:53:53.023Z,28.07
2019-02-26T17:56:26.724Z,29.23
2019-02-26T17:58:58.781Z,29.77
2019-02-26T18:01:30.048Z,28.80
2019-02-26T18:04:02.327Z,27.67
2019-02-26T18:09:20.619Z,30.52
2019-02-26T18:11:52.409Z,27.37
2019-02-26T18:14:24.712Z,30.90
2019-02-26T18:16:58.785Z,29.02
2019-02-26T18:19:30.216Z,28.07
2019-02-26T18:22:01.634Z,28.07
2019-02-26T18:24:32.983Z,30.05
2019-02-26T18:27:04.413Z,29.48
2019-02-26T18:29:36.345Z,29.90
2019-02-26T18:32:10.819Z,29.67
2019-02-26T18:34:41.347Z,30.00
2019-02-26T18:37:13.040Z,29.48
2019-02-26T18:39:45.515Z,30.12
2019-02-26T18:42:17.136Z,29.87
2019-02-26T18:44:49.437Z,29.90
2019-02-26T18:47:23.968Z,29.67
2019-02-26T18:50:02.707Z,31.10
2019-02-26T18:52:41.209Z,30.05
2019-02-26T18:55:12.858Z,34.88
2019-02-26T18:57:44.603Z,29.98
2019-02-26T19:00:25.987Z,31.37
2019-02-26T19:03:01.605Z,31.45
2019-02-26T19:05:34.438Z,28.85
2019-02-26T19:08:06.627Z,30.23
2019-02-26T19:10:40.238Z,30.43
2019-02-26T19:13:13.835Z,31.07
2019-02-26T19:15:47.690Z,29.67
2019-02-26T19:18:23.351Z,30.75
2019-02-26T19:20:54.869Z,33.33
2019-02-26T19:23:26.280Z,31.40
2019-02-26T19:25:58.730Z,30.52
2019-02-26T19:28:30.464Z,31.45
2019-02-26T19:31:03.379Z,30.97
2019-02-26T19:33:34.856Z,31.62
2019-02-26T19:36:07.151Z,30.62
2019-02-26T19:38:41.498Z,29.27
2019-02-26T19:41:15.725Z,43.65
2019-02-26T19:43:48.309Z,34.60
2019-02-26T19:49:13.206Z,31.57
2019-02-26T19:51:45.800Z,29.82
2019-02-26T19:54:17.787Z,27.62
2019-02-26T19:56:49.879Z,29.57
2019-02-26T19:59:23.567Z,27.98
2019-02-26T20:01:59.665Z,26.65
2019-02-26T20:04:38.660Z,29.87
2019-02-26T20:07:53.235Z,26.45
2019-02-26T20:10:32.371Z,28.92
2019-02-26T20:28:21.616Z,28.17
2019-02-26T20:30:53.137Z,28.55
2019-02-26T20:33:24.579Z,28.15
2019-02-26T20:35:56.085Z,31.52
2019-02-26T20:38:35.019Z,28.75
2019-02-26T20:41:03.445Z,28.98
2019-02-26T20:43:36.813Z,30.90
2019-02-26T20:46:08.860Z,29.45
2019-02-26T20:48:40.055Z,27.82
2019-02-26T20:51:11.277Z,28.15
2019-02-26T20:53:42.562Z,29.80
2019-02-26T20:56:13.847Z,31.15
2019-02-26T20:58:45.464Z,27.45
2019-02-26T21:01:16.824Z,25.23
2019-02-26T21:03:48.434Z,26.93
2019-02-26T21:06:19.714Z,26.35
2019-02-26T21:08:51.014Z,25.52
2019-02-26T21:11:23.336Z,26.27
2019-02-26T21:13:55.102Z,24.77
2019-02-26T21:16:26.282Z,25.97
2019-02-26T21:18:57.499Z,25.90
2019-02-26T21:21:30.257Z,26.15
2019-02-26T21:24:01.478Z,25.65
2019-02-26T21:26:33.128Z,24.30
2019-02-26T21:29:06.457Z,24.35
2019-02-26T21:31:38.901Z,25.30
2019-02-26T21:34:10.338Z,24.52
2019-02-26T21:36:41.594Z,21.23
2019-02-26T21:39:12.830Z,23.77
2019-02-26T21:41:44.109Z,21.60
2019-02-26T21:44:15.733Z,19.82
2019-02-26T21:46:47.006Z,23.85
2019-02-26T21:49:18.364Z,22.70
2019-02-26T21:51:50.691Z,23.27
2019-02-26T21:54:24.739Z,24.75
2019-02-26T21:56:55.723Z,24.57
2019-02-26T21:59:26.844Z,24.60
2019-02-26T22:01:59.048Z,25.60
2019-02-26T22:04:31.961Z,24.25
2019-02-26T22:07:03.267Z,25.10
2019-02-26T22:09:34.890Z,23.70
2019-02-26T22:12:06.188Z,22.95
2019-02-26T22:14:37.545Z,22.98
2019-02-26T22:17:08.731Z,23.05
2019-02-26T22:19:40.076Z,23.52
2019-02-26T22:22:13.781Z,23.75
2019-02-26T22:24:46.185Z,24.60
2019-02-26T22:27:17.654Z,23.25
2019-02-26T22:29:48.928Z,25.05
2019-02-26T22:32:20.153Z,25.88
2019-02-26T22:34:53.589Z,22.65
2019-02-26T22:37:24.384Z,25.90
2019-02-26T22:39:55.833Z,24.10
2019-02-26T22:42:28.723Z,25.65
2019-02-26T22:45:01.409Z,24.72
2019-02-26T22:47:33.220Z,24.37
2019-02-26T22:50:04.471Z,25.48
2019-02-26T22:52:36.991Z,22.27
2019-02-26T22:55:09.265Z,24.32
2019-02-26T22:57:40.970Z,26.82
2019-02-26T23:00:50.728Z,27.95
2019-02-26T23:03:46.890Z,26.25
2019-02-26T23:06:18.346Z,27.35
2019-02-26T23:08:50.024Z,25.05
2019-02-26T23:11:21.789Z,25.72
2019-02-26T23:13:54.391Z,24.75
2019-02-26T23:16:26.950Z,27.37
2019-02-26T23:19:03.517Z,27.70
2019-02-26T23:21:36.478Z,27.70
2019-02-26T23:24:10.606Z,26.30
2019-02-26T23:26:43.323Z,26.45
2019-02-26T23:29:16.507Z,27.30
2019-02-26T23:31:47.855Z,25.25
2019-02-26T23:34:22.151Z,27.17
2019-02-26T23:36:52.703Z,27.55
2019-02-26T23:39:24.910Z,27.98
2019-02-26T23:41:58.058Z,28.38
2019-02-26T23:44:29.387Z,26.12
2019-02-26T23:48:34.193Z,28.07
2019-02-26T23:51:05.641Z,23.32
2019-02-26T23:53:36.890Z,26.20
2019-02-26T23:56:09.024Z,27.93
2019-02-26T23:58:48.700Z,26.70
